Time;durP1;ratioP1;P1;durP2;ratioP2;P2;SDS_P1;SDS_P2;PMS_P1;PMS_P2;Temp;Humidity;BMP_temperature;BMP_pressure;BME280_temperature;BME280_humidity;BME280_pressure;Samples;Min_cycle;Max_cycle;Signal;HPM_P1;HPM_P2
2022/04/19 00:00:53;;;;;;;;;;;10.80;99.90;;;;;;10291036;28;84823;-52
2022/04/19 00:05:54;;;;;;;;;;;10.70;1.00;;;;;;10290780;28;85351;-53
2022/04/19 00:10:54;;;;;;;;;;;10.60;1.00;;;;;;10291338;28;85147;-50
2022/04/19 00:15:55;;;;;;;;;;;10.60;1.00;;;;;;10289675;28;84296;-53
2022/04/19 00:20:56;;;;;;;;;;;10.60;1.00;;;;;;10273197;28;87266;-48
2022/04/19 00:25:56;;;;;;;;;;;10.50;1.00;;;;;;10289789;28;84946;-49
2022/04/19 00:30:57;;;;;;;;;;;10.50;1.00;;;;;;10289088;28;85227;-48
2022/04/19 00:35:58;;;;;;;;;;;10.40;99.90;;;;;;10290032;28;84858;-48
2022/04/19 00:40:58;;;;;;;;;;;10.40;1.00;;;;;;10289629;28;84699;-51
2022/04/19 00:46:01;;;;;;;;;;;10.40;1.00;;;;;;10271917;28;85942;-54
2022/04/19 00:51:01;;;;;;;;;;;10.30;1.00;;;;;;10271423;28;86018;-48
2022/04/19 00:56:03;;;;;;;;;;;10.20;99.90;;;;;;10288977;28;84919;-51
2022/04/19 01:01:03;;;;;;;;;;;10.00;99.90;;;;;;10272438;28;87226;-54
2022/04/19 01:06:04;;;;;;;;;;;9.80;1.00;;;;;;10271464;28;86965;-51
2022/04/19 01:16:33;;;;;;;;;;;9.80;1.00;;;;;;10274779;28;84193;-49
2022/04/19 01:21:43;;;;;;;;;;;9.80;1.00;;;;;;10271013;28;86007;-47
2022/04/19 01:26:45;;;;;;;;;;;9.60;99.90;;;;;;10270375;28;86702;-49
2022/04/19 01:31:46;;;;;;;;;;;9.60;99.90;;;;;;10270180;28;87035;-52
2022/04/19 01:36:48;;;;;;;;;;;9.60;1.00;;;;;;10269717;28;86829;-49
2022/04/19 01:41:51;;;;;;;;;;;9.50;1.00;;;;;;10269567;28;85102;-49
2022/04/19 01:46:51;;;;;;;;;;;9.40;1.00;;;;;;10288187;28;84609;-49
2022/04/19 01:51:52;;;;;;;;;;;9.40;1.00;;;;;;10270109;28;87214;-53
2022/04/19 01:56:53;;;;;;;;;;;9.50;1.00;;;;;;10270474;28;86044;-51
2022/04/19 02:02:04;;;;;;;;;;;9.50;1.00;;;;;;10284102;28;86758;-54
2022/04/19 02:07:05;;;;;;;;;;;9.40;1.00;;;;;;10269189;28;86067;-52
2022/04/19 02:12:06;;;;;;;;;;;9.40;1.00;;;;;;10269673;28;86272;-47
2022/04/19 02:17:30;;;;;;;;;;;9.30;1.00;;;;;;10284625;28;85611;-49
2022/04/19 02:22:33;;;;;;;;;;;9.40;1.00;;;;;;10269073;28;86011;-50
2022/04/19 02:27:34;;;;;;;;;;;9.30;1.00;;;;;;10267588;28;84926;-54
2022/04/19 02:32:35;;;;;;;;;;;9.30;99.90;;;;;;10392139;22;85628;-48
2022/04/19 02:37:38;;;;;;;;;;;9.20;99.90;;;;;;10424147;28;85709;-49
2022/04/19 02:42:40;;;;;;;;;;;9.10;1.00;;;;;;10372440;28;86570;-48
2022/04/19 02:47:42;;;;;;;;;;;9.00;1.00;;;;;;10364349;28;85757;-48
2022/04/19 02:52:43;;;;;;;;;;;8.90;99.90;;;;;;10383438;28;86596;-49
2022/04/19 02:57:44;;;;;;;;;;;8.90;99.90;;;;;;10382963;28;85972;-50
2022/04/19 03:02:46;;;;;;;;;;;8.90;99.90;;;;;;10383319;28;85865;-50
2022/04/19 03:07:47;;;;;;;;;;;8.80;99.90;;;;;;10341443;28;85096;-52
2022/04/19 03:12:51;;;;;;;;;;;8.80;1.00;;;;;;10336201;28;85917;-50
2022/04/19 03:17:54;;;;;;;;;;;8.90;1.00;;;;;;10349349;28;87439;-49
2022/04/19 03:28:19;;;;;;;;;;;8.90;1.00;;;;;;10372923;28;85657;-51
2022/04/19 03:33:21;;;;;;;;;;;8.80;1.00;;;;;;10373222;28;85563;-52
2022/04/19 03:38:22;;;;;;;;;;;8.90;1.00;;;;;;10374027;28;84748;-53
2022/04/19 03:43:23;;;;;;;;;;;8.80;1.00;;;;;;10370935;28;85965;-48
2022/04/19 03:48:24;;;;;;;;;;;8.80;1.00;;;;;;10373486;28;84861;-48
2022/04/19 03:53:25;;;;;;;;;;;8.70;1.00;;;;;;10373045;28;85849;-48
2022/04/19 03:58:27;;;;;;;;;;;8.80;1.00;;;;;;10373192;28;85807;-52
2022/04/19 04:03:28;;;;;;;;;;;8.70;1.00;;;;;;10374231;28;86101;-49
2022/04/19 04:08:29;;;;;;;;;;;8.70;1.00;;;;;;10373421;28;84714;-51
2022/04/19 04:13:29;;;;;;;;;;;8.70;1.00;;;;;;10370404;28;86713;-51
2022/04/19 04:18:31;;;;;;;;;;;8.60;1.00;;;;;;10371041;28;84829;-49
2022/04/19 04:23:33;;;;;;;;;;;8.60;1.00;;;;;;10387551;28;86848;-48
2022/04/19 04:28:39;;;;;;;;;;;8.50;1.00;;;;;;10386083;28;85830;-48
2022/04/19 04:33:40;;;;;;;;;;;8.40;1.00;;;;;;10371878;28;84805;-53
2022/04/19 04:38:41;;;;;;;;;;;8.30;1.00;;;;;;10368551;28;85799;-49
2022/04/19 04:43:52;;;;;;;;;;;8.30;1.00;;;;;;10366524;28;85714;-50
2022/04/19 04:54:12;;;;;;;;;;;8.30;1.00;;;;;;10365552;28;86741;-49
2022/04/19 04:59:13;;;;;;;;;;;8.40;42.70;;;;;;10344921;28;85768;-49
2022/04/19 05:04:13;;;;;;;;;;;8.30;99.90;;;;;;10349812;28;84207;-50
2022/04/19 05:09:14;;;;;;;;;;;8.10;99.90;;;;;;10367113;28;85734;-50
2022/04/19 05:14:16;;;;;;;;;;;8.10;99.90;;;;;;10367317;28;85911;-48
2022/04/19 05:19:17;;;;;;;;;;;8.10;99.90;;;;;;10381187;28;86653;-54
2022/04/19 05:24:18;;;;;;;;;;;8.20;99.90;;;;;;10366509;28;86101;-52
2022/04/19 05:29:19;;;;;;;;;;;8.30;99.90;;;;;;10382259;28;86450;-49
2022/04/19 05:34:21;;;;;;;;;;;8.30;99.90;;;;;;10364279;28;86845;-51
2022/04/19 05:39:21;;;;;;;;;;;8.50;99.90;;;;;;10365487;28;85883;-52
2022/04/19 05:44:22;;;;;;;;;;;8.70;1.00;;;;;;10367774;28;86691;-51
2022/04/19 05:49:23;;;;;;;;;;;8.80;1.00;;;;;;10362785;28;85801;-52
2022/04/19 05:54:26;;;;;;;;;;;8.90;1.00;;;;;;10368138;28;84337;-53
2022/04/19 05:59:31;;;;;;;;;;;9.10;1.00;;;;;;10341097;28;86871;-64
2022/04/19 06:09:51;;;;;;;;;;;9.50;99.90;;;;;;10380303;28;86728;-49
2022/04/19 06:14:52;;;;;;;;;;;9.80;94.60;;;;;;10365904;28;86462;-51
2022/04/19 06:19:56;;;;;;;;;;;10.20;1.00;;;;;;10382917;28;86730;-50
2022/04/19 06:24:57;;;;;;;;;;;10.50;1.00;;;;;;10366254;28;84622;-49
2022/04/19 06:29:59;;;;;;;;;;;10.80;26.70;;;;;;10361771;28;86734;-47
2022/04/19 06:34:59;;;;;;;;;;;11.30;99.90;;;;;;10380427;28;86738;-49
2022/04/19 06:40:01;;;;;;;;;;;11.70;1.00;;;;;;10366534;28;86057;-53
2022/04/19 06:45:04;;;;;;;;;;;12.10;1.00;;;;;;10366713;28;85838;-50
2022/04/19 06:50:08;;;;;;;;;;;12.50;99.90;;;;;;10364617;28;86466;-49
2022/04/19 06:55:09;;;;;;;;;;;13.30;1.00;;;;;;10366432;28;86870;-50
2022/04/19 07:00:11;;;;;;;;;;;14.10;99.90;;;;;;10365612;28;85849;-49
2022/04/19 07:05:12;;;;;;;;;;;15.00;1.00;;;;;;10368788;28;85852;-50
2022/04/19 07:10:15;;;;;;;;;;;15.80;99.90;;;;;;10365588;28;86564;-50
2022/04/19 07:15:15;;;;;;;;;;;16.30;1.00;;;;;;10366691;28;85625;-49
2022/04/19 07:31:04;;;;;;;;;;;17.80;1.00;;;;;;10381486;28;85656;-51
2022/04/19 07:36:07;;;;;;;;;;;18.60;99.90;;;;;;10365181;28;86081;-49
2022/04/19 07:41:08;;;;;;;;;;;19.10;99.90;;;;;;10381801;28;86722;-53
2022/04/19 07:46:16;;;;;;;;;;;19.50;99.90;;;;;;10364810;28;85955;-50
2022/04/19 07:51:16;;;;;;;;;;;19.90;89.30;;;;;;10365180;28;85872;-48
2022/04/19 07:56:18;;;;;;;;;;;20.20;4.40;;;;;;10363525;28;86903;-50
2022/04/19 08:01:19;;;;;;;;;;;20.50;1.00;;;;;;10370095;28;86895;-48
2022/04/19 08:06:22;;;;;;;;;;;20.30;1.00;;;;;;10387107;28;86810;-49
2022/04/19 08:11:23;;;;;;;;;;;20.30;1.00;;;;;;10370919;28;86577;-53
2022/04/19 08:16:25;;;;;;;;;;;20.90;1.00;;;;;;10370454;28;85673;-52
2022/04/19 08:21:25;;;;;;;;;;;21.60;1.00;;;;;;10370479;28;86608;-52
2022/04/19 08:26:27;;;;;;;;;;;21.90;1.00;;;;;;10386734;28;85841;-52
2022/04/19 08:31:28;;;;;;;;;;;21.60;1.00;;;;;;10403803;22;86613;-60
2022/04/19 08:36:29;;;;;;;;;;;22.00;1.00;;;;;;10373103;28;85014;-60
2022/04/19 08:41:30;;;;;;;;;;;22.80;1.00;;;;;;10371585;28;87009;-59
2022/04/19 08:46:37;;;;;;;;;;;22.30;1.00;;;;;;10355327;28;86193;-60
2022/04/19 08:51:39;;;;;;;;;;;22.60;1.00;;;;;;10374067;28;85027;-60
2022/04/19 09:02:02;;;;;;;;;;;22.50;1.00;;;;;;10354983;28;87786;-60
2022/04/19 09:07:02;;;;;;;;;;;22.60;1.00;;;;;;10353754;28;86172;-60
2022/04/19 09:12:10;;;;;;;;;;;21.20;1.00;;;;;;10372278;28;85048;-59
2022/04/19 09:17:11;;;;;;;;;;;20.70;1.00;;;;;;10371893;28;84048;-58
2022/04/19 09:22:24;;;;;;;;;;;20.50;1.00;;;;;;10372714;28;84120;-59
2022/04/19 09:27:33;;;;;;;;;;;20.80;1.00;;;;;;10374870;28;84141;-56
2022/04/19 09:32:35;;;;;;;;;;;21.60;1.00;;;;;;10376403;28;84730;-59
2022/04/19 09:37:35;;;;;;;;;;;22.10;1.00;;;;;;10374345;28;85035;-57
2022/04/19 09:42:37;;;;;;;;;;;22.60;1.00;;;;;;10373741;28;84115;-58
2022/04/19 09:47:49;;;;;;;;;;;22.90;1.00;;;;;;10376982;28;84119;-58
2022/04/19 09:52:50;;;;;;;;;;;23.30;1.00;;;;;;10376239;28;84034;-59
2022/04/19 09:57:52;;;;;;;;;;;23.10;1.00;;;;;;10357429;28;85987;-59
2022/04/19 10:08:19;;;;;;;;;;;22.10;1.00;;;;;;10374655;28;84863;-60
2022/04/19 10:13:20;;;;;;;;;;;22.90;1.00;;;;;;10376347;28;84929;-58
2022/04/19 10:18:20;;;;;;;;;;;23.80;1.00;;;;;;10376323;28;83992;-59
2022/04/19 10:23:31;;;;;;;;;;;23.80;1.00;;;;;;10375023;28;84233;-58
2022/04/19 10:28:33;;;;;;;;;;;23.80;1.00;;;;;;10374620;28;84194;-60
2022/04/19 10:33:48;;;;;;;;;;;24.70;1.00;;;;;;10374774;28;84211;-60
2022/04/19 10:39:07;;;;;;;;;;;24.60;1.00;;;;;;10375709;28;84199;-59
2022/04/19 10:44:28;;;;;;;;;;;25.00;1.00;;;;;;10374466;28;85170;-60
2022/04/19 10:49:29;;;;;;;;;;;25.30;1.00;;;;;;10355800;28;84265;-60
2022/04/19 10:54:48;;;;;;;;;;;25.10;1.00;;;;;;10375378;28;83979;-61
2022/04/19 10:59:49;;;;;;;;;;;24.70;1.00;;;;;;10372395;28;84907;-60
2022/04/19 11:04:50;;;;;;;;;;;25.30;1.00;;;;;;10373215;28;84307;-58
2022/04/19 11:10:00;;;;;;;;;;;24.70;1.00;;;;;;10372125;28;84768;-57
2022/04/19 11:15:13;;;;;;;;;;;25.40;1.00;;;;;;10369583;28;84030;-58
2022/04/19 11:20:14;;;;;;;;;;;25.20;1.00;;;;;;10369255;28;84865;-58
2022/04/19 11:25:16;;;;;;;;;;;24.60;1.00;;;;;;10371038;28;84123;-59
2022/04/19 11:30:17;;;;;;;;;;;25.00;1.00;;;;;;10371845;28;86433;-58
2022/04/19 11:35:17;;;;;;;;;;;23.80;1.00;;;;;;10375766;28;84237;-60
2022/04/19 11:51:08;;;;;;;;;;;24.70;1.00;;;;;;10385036;28;84119;-60
2022/04/19 11:56:10;;;;;;;;;;;24.30;1.00;;;;;;10362169;28;86983;-58
2022/04/19 12:01:16;;;;;;;;;;;24.50;1.00;;;;;;10367149;28;84421;-57
2022/04/19 12:06:20;;;;;;;;;;;24.70;1.00;;;;;;10365045;28;84092;-58
2022/04/19 12:11:29;;;;;;;;;;;24.90;1.00;;;;;;10365368;28;84170;-58
2022/04/19 12:16:36;;;;;;;;;;;25.10;1.00;;;;;;10360750;28;84122;-60
2022/04/19 12:21:38;;;;;;;;;;;24.30;1.00;;;;;;10359596;28;85501;-59
2022/04/19 12:26:39;;;;;;;;;;;23.90;1.00;;;;;;10360539;28;86117;-58
2022/04/19 12:31:41;;;;;;;;;;;24.30;1.00;;;;;;10376077;28;84786;-59
2022/04/19 12:36:42;;;;;;;;;;;24.30;1.00;;;;;;10373727;28;84026;-58
2022/04/19 12:41:44;;;;;;;;;;;24.10;1.00;;;;;;10362708;28;86738;-60
2022/04/19 12:46:49;;;;;;;;;;;24.40;1.00;;;;;;10366848;28;84913;-60
2022/04/19 12:52:03;;;;;;;;;;;24.20;1.00;;;;;;10360778;28;84157;-60
2022/04/19 12:57:05;;;;;;;;;;;24.60;1.00;;;;;;10377246;28;84380;-60
2022/04/19 13:02:05;;;;;;;;;;;25.10;1.00;;;;;;10375608;28;84366;-59
2022/04/19 13:12:26;;;;;;;;;;;24.50;1.00;;;;;;10374234;28;84096;-59
2022/04/19 13:17:28;;;;;;;;;;;24.80;1.00;;;;;;10354070;28;86984;-59
2022/04/19 13:22:29;;;;;;;;;;;24.30;1.00;;;;;;10372476;28;84090;-59
2022/04/19 13:27:33;;;;;;;;;;;24.90;1.00;;;;;;10372177;28;84388;-60
2022/04/19 13:32:35;;;;;;;;;;;25.00;1.00;;;;;;10372224;28;85178;-59
2022/04/19 13:42:55;;;;;;;;;;;24.40;1.00;;;;;;10372984;28;85081;-59
2022/04/19 13:47:57;;;;;;;;;;;24.80;1.00;;;;;;10372682;28;84118;-58
2022/04/19 13:52:57;;;;;;;;;;;24.70;1.00;;;;;;10377256;28;84986;-59
2022/04/19 13:57:58;;;;;;;;;;;24.60;1.00;;;;;;10371919;28;85402;-59
2022/04/19 14:02:59;;;;;;;;;;;24.30;1.00;;;;;;10373157;28;84897;-59
2022/04/19 14:08:00;;;;;;;;;;;24.30;1.00;;;;;;10344548;28;85069;-59
2022/04/19 14:13:00;;;;;;;;;;;24.00;1.00;;;;;;10372285;28;85976;-58
2022/04/19 14:18:02;;;;;;;;;;;24.60;1.00;;;;;;10369258;28;85845;-58
2022/04/19 14:23:03;;;;;;;;;;;24.40;1.00;;;;;;10348637;28;85956;-59
2022/04/19 14:28:03;;;;;;;;;;;24.60;1.00;;;;;;10366038;28;84703;-57
2022/04/19 14:33:16;;;;;;;;;;;23.30;1.00;;;;;;10368371;22;84047;-49
2022/04/19 14:38:18;;;;;;;;;;;22.70;1.00;;;;;;10346360;28;85813;-48
2022/04/19 14:43:18;;;;;;;;;;;22.00;1.00;;;;;;10367521;28;84151;-50
2022/04/19 14:48:19;;;;;;;;;;;21.20;1.00;;;;;;10366480;28;84837;-49
2022/04/19 14:53:19;;;;;;;;;;;20.60;1.00;;;;;;10365755;28;85388;-49
2022/04/19 14:58:20;;;;;;;;;;;19.50;1.00;;;;;;10366752;28;85168;-47
2022/04/19 15:03:20;;;;;;;;;;;19.00;1.00;;;;;;10368939;28;85136;-49
2022/04/19 15:08:21;;;;;;;;;;;18.90;1.00;;;;;;10366944;28;84055;-48
2022/04/19 15:13:22;;;;;;;;;;;18.70;1.00;;;;;;10369415;28;84909;-49
2022/04/19 15:18:22;;;;;;;;;;;18.20;1.00;;;;;;10369158;28;84092;-46
2022/04/19 15:23:23;;;;;;;;;;;18.10;1.00;;;;;;10365863;28;85052;-49
2022/04/19 15:28:23;;;;;;;;;;;18.00;1.00;;;;;;10367615;28;85518;-49
2022/04/19 15:33:24;;;;;;;;;;;17.90;1.00;;;;;;10368532;28;84226;-48
2022/04/19 15:38:25;;;;;;;;;;;17.60;1.00;;;;;;10359831;28;84753;-58
2022/04/19 15:43:25;;;;;;;;;;;17.50;1.00;;;;;;10366170;28;84895;-49
2022/04/19 15:48:28;;;;;;;;;;;17.40;1.00;;;;;;10365348;28;84769;-49
2022/04/19 15:53:29;;;;;;;;;;;17.50;1.00;;;;;;10367097;28;85382;-48
2022/04/19 15:58:30;;;;;;;;;;;17.60;1.00;;;;;;10344177;28;84922;-49
2022/04/19 16:03:31;;;;;;;;;;;17.30;1.00;;;;;;10365514;28;84184;-48
2022/04/19 16:08:31;;;;;;;;;;;17.30;1.00;;;;;;10367165;28;84109;-49
2022/04/19 16:13:32;;;;;;;;;;;17.10;1.00;;;;;;10363448;28;84354;-49
2022/04/19 16:23:52;;;;;;;;;;;16.90;1.00;;;;;;10372672;28;84958;-52
2022/04/19 16:28:52;;;;;;;;;;;16.80;1.00;;;;;;10371710;28;84192;-58
2022/04/19 16:33:53;;;;;;;;;;;16.60;1.00;;;;;;10372850;28;84330;-57
2022/04/19 16:38:54;;;;;;;;;;;16.50;1.00;;;;;;10373728;28;84751;-58
2022/04/19 16:43:55;;;;;;;;;;;16.50;1.00;;;;;;10373228;28;84194;-58
2022/04/19 16:48:56;;;;;;;;;;;16.50;1.00;;;;;;10370309;28;85030;-52
2022/04/19 16:53:57;;;;;;;;;;;16.60;1.00;;;;;;10370632;28;84219;-55
2022/04/19 16:58:57;;;;;;;;;;;16.50;1.00;;;;;;10354611;28;84846;-54
2022/04/19 17:04:03;;;;;;;;;;;16.40;1.00;;;;;;10368060;28;85127;-48
2022/04/19 17:09:09;;;;;;;;;;;16.50;1.00;;;;;;10368515;28;84939;-47
2022/04/19 17:14:09;;;;;;;;;;;16.40;1.00;;;;;;10367397;28;85172;-52
2022/04/19 17:19:11;;;;;;;;;;;16.30;1.00;;;;;;10368802;28;85088;-49
2022/04/19 17:24:11;;;;;;;;;;;16.20;1.00;;;;;;10365113;28;86381;-51
2022/04/19 17:29:12;;;;;;;;;;;16.10;1.00;;;;;;10368975;28;84505;-53
2022/04/19 17:34:13;;;;;;;;;;;16.00;1.00;;;;;;10378016;28;84333;-50
2022/04/19 17:39:14;;;;;;;;;;;16.10;1.00;;;;;;10360202;28;84317;-51
2022/04/19 17:44:17;;;;;;;;;;;16.00;1.00;;;;;;10362853;28;84432;-49
2022/04/19 17:49:17;;;;;;;;;;;15.90;1.00;;;;;;10357076;28;84852;-49
2022/04/19 17:59:45;;;;;;;;;;;15.80;1.00;;;;;;10358475;28;84265;-58
2022/04/19 18:04:46;;;;;;;;;;;15.80;1.00;;;;;;10356181;28;84373;-51
2022/04/19 18:09:46;;;;;;;;;;;15.70;1.00;;;;;;10349997;28;84799;-48
2022/04/19 18:14:47;;;;;;;;;;;15.60;1.00;;;;;;10357561;28;84788;-48
2022/04/19 18:19:49;;;;;;;;;;;15.60;1.00;;;;;;10364488;28;84520;-48
2022/04/19 18:30:12;;;;;;;;;;;15.50;1.00;;;;;;10361017;28;85141;-49
2022/04/19 18:35:13;;;;;;;;;;;15.30;1.00;;;;;;10366850;28;84145;-50
2022/04/19 18:40:13;;;;;;;;;;;15.20;1.00;;;;;;10365909;28;84982;-48
2022/04/19 18:45:14;;;;;;;;;;;15.10;1.00;;;;;;10348382;28;86126;-49
2022/04/19 18:50:15;;;;;;;;;;;15.10;1.00;;;;;;10346379;28;84696;-48
2022/04/19 18:55:15;;;;;;;;;;;14.90;1.00;;;;;;10334903;28;84210;-48
2022/04/19 19:00:17;;;;;;;;;;;14.80;1.00;;;;;;10343653;28;85860;-49
2022/04/19 19:05:18;;;;;;;;;;;14.70;1.00;;;;;;10328437;28;84262;-48
2022/04/19 19:10:19;;;;;;;;;;;14.70;1.00;;;;;;10331273;28;84286;-47
2022/04/19 19:15:20;;;;;;;;;;;14.60;1.00;;;;;;10335431;28;84975;-47
2022/04/19 19:20:22;;;;;;;;;;;14.50;1.00;;;;;;10359987;28;86200;-49
2022/04/19 19:25:23;;;;;;;;;;;14.40;1.00;;;;;;10355311;28;84213;-48
2022/04/19 19:30:24;;;;;;;;;;;14.20;1.00;;;;;;10327077;28;84250;-49
2022/04/19 19:35:25;;;;;;;;;;;14.20;1.00;;;;;;10357914;28;84820;-47
2022/04/19 19:40:25;;;;;;;;;;;14.10;1.00;;;;;;10362833;28;85366;-48
2022/04/19 19:45:26;;;;;;;;;;;14.00;1.00;;;;;;10360012;28;85967;-49
2022/04/19 19:50:27;;;;;;;;;;;13.90;1.00;;;;;;10359203;28;84869;-49
2022/04/19 19:55:27;;;;;;;;;;;13.80;1.00;;;;;;10363112;28;84140;-49
2022/04/19 20:00:28;;;;;;;;;;;13.70;1.00;;;;;;10364572;28;84256;-47
2022/04/19 20:05:28;;;;;;;;;;;13.60;1.00;;;;;;10345939;28;84997;-49
2022/04/19 20:10:33;;;;;;;;;;;13.50;1.00;;;;;;10354659;28;84988;-48
2022/04/19 20:15:34;;;;;;;;;;;13.40;1.00;;;;;;10367985;28;85752;-49
2022/04/19 20:20:34;;;;;;;;;;;13.30;1.00;;;;;;10370990;28;84922;-48
2022/04/19 20:25:35;;;;;;;;;;;13.30;1.00;;;;;;10369726;28;86001;-50
2022/04/19 20:30:36;;;;;;;;;;;13.10;1.00;;;;;;10377452;22;85236;-50
2022/04/19 20:35:36;;;;;;;;;;;13.00;1.00;;;;;;10361056;28;84249;-53
2022/04/19 20:40:37;;;;;;;;;;;13.00;1.00;;;;;;10350706;28;84508;-49
2022/04/19 20:45:37;;;;;;;;;;;12.90;1.00;;;;;;10299269;28;84583;-53
2022/04/19 20:50:39;;;;;;;;;;;12.90;1.00;;;;;;10302276;28;85308;-52
2022/04/19 20:55:40;;;;;;;;;;;12.80;1.00;;;;;;10294611;28;84347;-49
2022/04/19 21:00:43;;;;;;;;;;;12.70;1.00;;;;;;10296786;28;85051;-51
2022/04/19 21:05:44;;;;;;;;;;;12.70;1.00;;;;;;10322397;28;85179;-51
2022/04/19 21:10:44;;;;;;;;;;;12.60;1.00;;;;;;10310849;28;84917;-50
2022/04/19 21:15:45;;;;;;;;;;;12.50;1.00;;;;;;10302899;28;86131;-49
2022/04/19 21:20:45;;;;;;;;;;;12.40;1.00;;;;;;10320746;28;84935;-53
2022/04/19 21:25:46;;;;;;;;;;;12.30;1.00;;;;;;10325988;28;84946;-48
2022/04/19 21:30:46;;;;;;;;;;;12.30;1.00;;;;;;10320893;28;84170;-49
2022/04/19 21:35:47;;;;;;;;;;;12.20;1.00;;;;;;10306644;28;85088;-52
2022/04/19 21:40:48;;;;;;;;;;;12.10;1.00;;;;;;10319598;28;84467;-50
2022/04/19 21:45:48;;;;;;;;;;;12.00;1.00;;;;;;10306384;28;84486;-51
2022/04/19 21:50:55;;;;;;;;;;;11.90;1.00;;;;;;10336401;28;84403;-53
2022/04/19 21:55:56;;;;;;;;;;;11.80;1.00;;;;;;10328749;28;83963;-49
2022/04/19 22:01:18;;;;;;;;;;;11.80;36.40;;;;;;10313611;28;84188;-48
2022/04/19 22:06:20;;;;;;;;;;;11.70;97.60;;;;;;10305784;28;84211;-46
2022/04/19 22:11:20;;;;;;;;;;;11.60;99.90;;;;;;10309157;28;85030;-48
2022/04/19 22:16:21;;;;;;;;;;;11.60;99.90;;;;;;10309316;28;85081;-48
2022/04/19 22:21:21;;;;;;;;;;;11.50;99.90;;;;;;10311459;28;84129;-51
2022/04/19 22:26:22;;;;;;;;;;;11.50;99.90;;;;;;10346622;28;84253;-48
2022/04/19 22:31:24;;;;;;;;;;;11.40;99.90;;;;;;10307589;28;84923;-51
2022/04/19 22:36:25;;;;;;;;;;;11.30;99.90;;;;;;10309150;28;84275;-49
2022/04/19 22:41:25;;;;;;;;;;;11.30;99.90;;;;;;10295688;28;84974;-52
2022/04/19 22:46:26;;;;;;;;;;;11.20;99.90;;;;;;10334236;28;84495;-50
2022/04/19 22:51:27;;;;;;;;;;;11.10;99.90;;;;;;10325175;28;85044;-49
2022/04/19 22:56:27;;;;;;;;;;;11.10;99.90;;;;;;10329313;28;84065;-50
2022/04/19 23:01:28;;;;;;;;;;;11.10;99.90;;;;;;10319661;28;89868;-49
2022/04/19 23:06:28;;;;;;;;;;;11.10;99.90;;;;;;10326646;28;84974;-50
2022/04/19 23:11:29;;;;;;;;;;;10.90;99.90;;;;;;10327355;28;85103;-52
2022/04/19 23:16:29;;;;;;;;;;;10.90;99.90;;;;;;10328445;28;84061;-53
2022/04/19 23:21:30;;;;;;;;;;;10.90;99.90;;;;;;10327670;28;84933;-48
2022/04/19 23:31:49;;;;;;;;;;;10.70;99.90;;;;;;10331511;28;84722;-48
2022/04/19 23:36:51;;;;;;;;;;;10.60;1.00;;;;;;10316167;28;86137;-49
2022/04/19 23:41:51;;;;;;;;;;;10.60;1.00;;;;;;10334039;28;84162;-50
2022/04/19 23:46:52;;;;;;;;;;;10.50;1.00;;;;;;10333626;28;86539;-46
2022/04/19 23:51:52;;;;;;;;;;;10.40;1.00;;;;;;10334381;28;84873;-51
2022/04/19 23:56:53;;;;;;;;;;;10.40;1.00;;;;;;10315653;28;84104;-49
